sensor_id;sensor_type;location;lat;lon;timestamp;pressure;altitude;pressure_sealevel;temperature;humidity
50684;BME280;36654;45.042;38.994;2023-01-31T00:00:01;100745.28;;;5.63;73.21
50684;BME280;36654;45.042;38.994;2023-01-31T00:02:29;100707.06;;;5.46;73.36
50684;BME280;36654;45.042;38.994;2023-01-31T00:04:55;100734.53;;;5.55;73.29
50684;BME280;36654;45.042;38.994;2023-01-31T00:07:20;100731.66;;;5.48;73.33
50684;BME280;36654;45.042;38.994;2023-01-31T00:09:46;100726.41;;;5.48;73.69
50684;BME280;36654;45.042;38.994;2023-01-31T00:12:11;100742.19;;;5.48;73.59
50684;BME280;36654;45.042;38.994;2023-01-31T00:14:37;100729.88;;;5.47;73.88
50684;BME280;36654;45.042;38.994;2023-01-31T00:17:03;100732.59;;;5.50;73.99
50684;BME280;36654;45.042;38.994;2023-01-31T00:19:28;100721.16;;;5.48;73.85
50684;BME280;36654;45.042;38.994;2023-01-31T00:21:54;100737.97;;;5.53;74.19
50684;BME280;36654;45.042;38.994;2023-01-31T00:24:19;100737.09;;;5.54;74.15
50684;BME280;36654;45.042;38.994;2023-01-31T00:26:45;100728.47;;;5.58;74.08
50684;BME280;36654;45.042;38.994;2023-01-31T00:29:12;100732.06;;;5.60;74.10
50684;BME280;36654;45.042;38.994;2023-01-31T00:31:38;100731.25;;;5.62;74.00
50684;BME280;36654;45.042;38.994;2023-01-31T00:34:04;100732.22;;;5.66;74.25
50684;BME280;36654;45.042;38.994;2023-01-31T00:36:31;100725.19;;;5.65;74.07
50684;BME280;36654;45.042;38.994;2023-01-31T00:39:00;100732.34;;;5.69;74.11
50684;BME280;36654;45.042;38.994;2023-01-31T00:41:27;100727.16;;;5.72;74.29
50684;BME280;36654;45.042;38.994;2023-01-31T00:43:53;100719.38;;;5.75;74.40
50684;BME280;36654;45.042;38.994;2023-01-31T00:46:20;100718.50;;;5.76;74.37
50684;BME280;36654;45.042;38.994;2023-01-31T00:48:46;100720.31;;;5.77;74.46
50684;BME280;36654;45.042;38.994;2023-01-31T00:51:12;100717.81;;;5.82;74.57
50684;BME280;36654;45.042;38.994;2023-01-31T00:53:38;100714.34;;;5.83;74.50
50684;BME280;36654;45.042;38.994;2023-01-31T00:56:09;100711.75;;;5.84;74.53
50684;BME280;36654;45.042;38.994;2023-01-31T00:58:36;100705.50;;;5.81;74.87
50684;BME280;36654;45.042;38.994;2023-01-31T01:01:13;100709.94;;;5.82;75.02
50684;BME280;36654;45.042;38.994;2023-01-31T01:03:39;100706.38;;;5.81;75.00
50684;BME280;36654;45.042;38.994;2023-01-31T01:06:06;100656.53;;;5.56;75.17
50684;BME280;36654;45.042;38.994;2023-01-31T01:08:33;100703.75;;;5.81;75.21
50684;BME280;36654;45.042;38.994;2023-01-31T01:13:35;100699.97;;;5.72;75.89
50684;BME280;36654;45.042;38.994;2023-01-31T01:16:05;100702.72;;;5.76;75.98
50684;BME280;36654;45.042;38.994;2023-01-31T01:18:31;100651.97;;;5.50;76.05
50684;BME280;36654;45.042;38.994;2023-01-31T01:21:11;100705.41;;;5.78;76.00
50684;BME280;36654;45.042;38.994;2023-01-31T01:23:38;100701.91;;;5.77;76.08
50684;BME280;36654;45.042;38.994;2023-01-31T01:26:05;100705.50;;;5.81;76.28
50684;BME280;36654;45.042;38.994;2023-01-31T01:28:34;100701.97;;;5.80;76.47
50684;BME280;36654;45.042;38.994;2023-01-31T01:31:07;100694.09;;;5.80;76.43
50684;BME280;36654;45.042;38.994;2023-01-31T01:33:34;100702.84;;;5.79;76.64
50684;BME280;36654;45.042;38.994;2023-01-31T01:36:04;100706.28;;;5.78;76.67
50684;BME280;36654;45.042;38.994;2023-01-31T01:38:30;100688.66;;;5.74;76.82
50684;BME280;36654;45.042;38.994;2023-01-31T01:40:57;100690.50;;;5.78;76.97
50684;BME280;36654;45.042;38.994;2023-01-31T01:43:51;100687.06;;;5.79;76.92
50684;BME280;36654;45.042;38.994;2023-01-31T01:46:40;100689.69;;;5.79;76.99
50684;BME280;36654;45.042;38.994;2023-01-31T01:51:45;100692.19;;;5.76;77.17
50684;BME280;36654;45.042;38.994;2023-01-31T01:54:15;100689.34;;;5.69;77.39
50684;BME280;36654;45.042;38.994;2023-01-31T01:56:46;100694.56;;;5.67;77.70
50684;BME280;36654;45.042;38.994;2023-01-31T01:59:28;100691.81;;;5.64;77.87
50684;BME280;36654;45.042;38.994;2023-01-31T02:01:55;100691.81;;;5.62;78.02
50684;BME280;36654;45.042;38.994;2023-01-31T02:04:24;100676.44;;;5.48;78.30
50684;BME280;36654;45.042;38.994;2023-01-31T02:06:52;100668.34;;;5.41;78.29
50684;BME280;36654;45.042;38.994;2023-01-31T02:09:24;100684.25;;;5.45;78.48
50684;BME280;36654;45.042;38.994;2023-01-31T02:11:54;100678.88;;;5.41;78.47
50684;BME280;36654;45.042;38.994;2023-01-31T02:14:20;100695.19;;;5.31;78.38
50684;BME280;36654;45.042;38.994;2023-01-31T02:16:45;100650.56;;;5.04;78.33
50684;BME280;36654;45.042;38.994;2023-01-31T02:19:33;100678.94;;;5.16;78.80
50684;BME280;36654;45.042;38.994;2023-01-31T02:22:56;100692.31;;;5.24;78.78
50684;BME280;36654;45.042;38.994;2023-01-31T02:38:29;100688.81;;;5.23;78.61
50684;BME280;36654;45.042;38.994;2023-01-31T02:41:10;100679.81;;;5.15;78.65
50684;BME280;36654;45.042;38.994;2023-01-31T02:43:53;100690.50;;;5.21;78.81
50684;BME280;36654;45.042;38.994;2023-01-31T02:46:59;100687.59;;;5.12;78.39
50684;BME280;36654;45.042;38.994;2023-01-31T02:49:46;100677.50;;;4.98;78.34
50684;BME280;36654;45.042;38.994;2023-01-31T02:52:30;100694.91;;;4.95;78.28
50684;BME280;36654;45.042;38.994;2023-01-31T02:55:05;100682.47;;;4.89;78.32
50684;BME280;36654;45.042;38.994;2023-01-31T02:57:51;100639.41;;;4.59;78.00
50684;BME280;36654;45.042;38.994;2023-01-31T03:00:18;100668.06;;;4.78;77.79
50684;BME280;36654;45.042;38.994;2023-01-31T03:02:45;100680.59;;;4.85;77.75
50684;BME280;36654;45.042;38.994;2023-01-31T03:05:18;100682.16;;;4.80;77.59
50684;BME280;36654;45.042;38.994;2023-01-31T03:07:52;100688.53;;;4.87;77.76
50684;BME280;36654;45.042;38.994;2023-01-31T03:13:06;100672.47;;;4.79;77.66
50684;BME280;36654;45.042;38.994;2023-01-31T03:15:54;100682.34;;;4.86;77.43
50684;BME280;36654;45.042;38.994;2023-01-31T03:19:27;100684.88;;;4.83;77.41
50684;BME280;36654;45.042;38.994;2023-01-31T03:21:49;100691.88;;;4.83;77.37
50684;BME280;36654;45.042;38.994;2023-01-31T03:24:18;100675.06;;;4.78;77.13
50684;BME280;36654;45.042;38.994;2023-01-31T03:26:45;100675.00;;;4.76;77.18
50684;BME280;36654;45.042;38.994;2023-01-31T03:29:14;100687.50;;;4.83;77.01
50684;BME280;36654;45.042;38.994;2023-01-31T03:31:54;100679.47;;;4.79;76.92
50684;BME280;36654;45.042;38.994;2023-01-31T03:34:21;100681.06;;;4.73;76.73
50684;BME280;36654;45.042;38.994;2023-01-31T03:37:12;100682.88;;;4.76;77.17
50684;BME280;36654;45.042;38.994;2023-01-31T03:39:43;100658.75;;;4.61;77.09
50684;BME280;36654;45.042;38.994;2023-01-31T03:42:20;100674.22;;;4.79;77.16
50684;BME280;36654;45.042;38.994;2023-01-31T03:47:42;100680.41;;;4.81;76.94
50684;BME280;36654;45.042;38.994;2023-01-31T03:50:29;100694.34;;;4.78;76.88
50684;BME280;36654;45.042;38.994;2023-01-31T03:53:00;100681.94;;;4.74;76.80
50684;BME280;36654;45.042;38.994;2023-01-31T03:55:34;100676.41;;;4.65;76.92
50684;BME280;36654;45.042;38.994;2023-01-31T03:58:02;100687.94;;;4.70;77.11
50684;BME280;36654;45.042;38.994;2023-01-31T04:00:33;100696.72;;;4.70;77.05
50684;BME280;36654;45.042;38.994;2023-01-31T04:03:17;100693.13;;;4.68;77.06
50684;BME280;36654;45.042;38.994;2023-01-31T04:05:45;100691.41;;;4.69;77.30
50684;BME280;36654;45.042;38.994;2023-01-31T04:08:11;100689.63;;;4.68;77.38
50684;BME280;36654;45.042;38.994;2023-01-31T04:10:36;100686.13;;;4.67;77.31
50684;BME280;36654;45.042;38.994;2023-01-31T04:13:02;100685.22;;;4.67;77.41
50684;BME280;36654;45.042;38.994;2023-01-31T04:15:28;100679.06;;;4.66;77.51
50684;BME280;36654;45.042;38.994;2023-01-31T04:17:54;100688.78;;;4.69;77.54
50684;BME280;36654;45.042;38.994;2023-01-31T04:20:19;100679.31;;;4.74;77.50
50684;BME280;36654;45.042;38.994;2023-01-31T04:22:45;100689.03;;;4.76;77.32
50684;BME280;36654;45.042;38.994;2023-01-31T04:25:11;100683.94;;;4.81;77.67
50684;BME280;36654;45.042;38.994;2023-01-31T04:27:36;100645.59;;;4.61;77.28
50684;BME280;36654;45.042;38.994;2023-01-31T04:30:04;100687.59;;;4.86;77.40
50684;BME280;36654;45.042;38.994;2023-01-31T04:32:30;100686.81;;;4.89;77.38
50684;BME280;36654;45.042;38.994;2023-01-31T04:34:55;100697.44;;;4.92;77.46
50684;BME280;36654;45.042;38.994;2023-01-31T04:37:21;100687.59;;;4.86;77.08
50684;BME280;36654;45.042;38.994;2023-01-31T04:39:46;100675.41;;;4.88;77.23
50684;BME280;36654;45.042;38.994;2023-01-31T04:42:12;100692.31;;;4.96;77.31
50684;BME280;36654;45.042;38.994;2023-01-31T04:44:38;100678.22;;;4.93;77.38
50684;BME280;36654;45.042;38.994;2023-01-31T04:47:03;100674.63;;;4.91;77.43
50684;BME280;36654;45.042;38.994;2023-01-31T04:49:29;100689.91;;;5.03;77.44
50684;BME280;36654;45.042;38.994;2023-01-31T04:51:54;100689.91;;;5.03;77.42
50684;BME280;36654;45.042;38.994;2023-01-31T04:54:20;100694.28;;;5.02;77.31
50684;BME280;36654;45.042;38.994;2023-01-31T04:56:46;100688.22;;;5.05;77.65
50684;BME280;36654;45.042;38.994;2023-01-31T04:59:11;100683.78;;;5.02;77.38
50684;BME280;36654;45.042;38.994;2023-01-31T05:01:37;100647.94;;;4.79;77.59
50684;BME280;36654;45.042;38.994;2023-01-31T05:04:02;100694.44;;;5.07;77.44
50684;BME280;36654;45.042;38.994;2023-01-31T05:06:28;100645.31;;;4.79;77.50
50684;BME280;36654;45.042;38.994;2023-01-31T05:08:53;100688.31;;;5.08;77.22
50684;BME280;36654;45.042;38.994;2023-01-31T05:11:19;100693.69;;;5.11;77.34
50684;BME280;36654;45.042;38.994;2023-01-31T05:13:45;100691.81;;;5.07;77.33
50684;BME280;36654;45.042;38.994;2023-01-31T05:16:12;100675.91;;;5.04;77.11
50684;BME280;36654;45.042;38.994;2023-01-31T05:18:38;100689.38;;;5.13;77.21
50684;BME280;36654;45.042;38.994;2023-01-31T05:21:05;100670.47;;;4.97;77.01
50684;BME280;36654;45.042;38.994;2023-01-31T05:23:31;100701.97;;;5.23;77.00
50684;BME280;36654;45.042;38.994;2023-01-31T05:25:57;100695.91;;;5.26;76.85
50684;BME280;36654;45.042;38.994;2023-01-31T05:28:24;100695.97;;;5.27;77.00
50684;BME280;36654;45.042;38.994;2023-01-31T05:30:53;100708.34;;;5.31;77.05
50684;BME280;36654;45.042;38.994;2023-01-31T05:33:25;100697.81;;;5.31;76.98
50684;BME280;36654;45.042;38.994;2023-01-31T05:35:52;100688.91;;;5.26;77.31
50684;BME280;36654;45.042;38.994;2023-01-31T05:38:17;100697.03;;;5.34;77.11
50684;BME280;36654;45.042;38.994;2023-01-31T05:40:43;100698.03;;;5.37;76.90
50684;BME280;36654;45.042;38.994;2023-01-31T05:43:09;100705.16;;;5.41;76.99
50684;BME280;36654;45.042;38.994;2023-01-31T05:45:34;100702.59;;;5.43;76.57
50684;BME280;36654;45.042;38.994;2023-01-31T05:48:00;100649.31;;;5.20;76.88
50684;BME280;36654;45.042;38.994;2023-01-31T05:50:25;100701.88;;;5.49;76.57
50684;BME280;36654;45.042;38.994;2023-01-31T05:52:53;100696.84;;;5.55;76.48
50684;BME280;36654;45.042;38.994;2023-01-31T05:55:19;100659.34;;;5.33;76.42
50684;BME280;36654;45.042;38.994;2023-01-31T05:57:45;100695.09;;;5.55;76.48
50684;BME280;36654;45.042;38.994;2023-01-31T06:00:12;100654.38;;;5.43;76.68
50684;BME280;36654;45.042;38.994;2023-01-31T06:02:41;100691.81;;;5.64;76.48
50684;BME280;36654;45.042;38.994;2023-01-31T06:05:08;100641.25;;;5.44;76.84
50684;BME280;36654;45.042;38.994;2023-01-31T06:07:34;100693.13;;;5.78;76.96
50684;BME280;36654;45.042;38.994;2023-01-31T06:10:00;100699.50;;;5.85;76.98
50684;BME280;36654;45.042;38.994;2023-01-31T06:12:25;100694.41;;;5.91;77.00
50684;BME280;36654;45.042;38.994;2023-01-31T06:14:53;100699.84;;;5.96;77.00
50684;BME280;36654;45.042;38.994;2023-01-31T06:17:19;100693.84;;;6.01;76.91
50684;BME280;36654;45.042;38.994;2023-01-31T06:19:44;100686.94;;;6.05;76.98
50684;BME280;36654;45.042;38.994;2023-01-31T06:22:10;100684.25;;;6.02;76.99
50684;BME280;36654;45.042;38.994;2023-01-31T06:24:35;100697.47;;;6.05;77.04
50684;BME280;36654;45.042;38.994;2023-01-31T06:27:01;100689.66;;;6.08;77.14
50684;BME280;36654;45.042;38.994;2023-01-31T06:29:27;100689.66;;;6.08;77.27
50684;BME280;36654;45.042;38.994;2023-01-31T06:31:52;100703.84;;;6.13;76.89
50684;BME280;36654;45.042;38.994;2023-01-31T06:34:18;100704.78;;;6.15;76.90
50684;BME280;36654;45.042;38.994;2023-01-31T06:36:44;100688.06;;;6.13;76.62
50684;BME280;36654;45.042;38.994;2023-01-31T06:39:11;100686.28;;;6.12;76.38
50684;BME280;36654;45.042;38.994;2023-01-31T06:41:37;100675.75;;;6.12;76.31
50684;BME280;36654;45.042;38.994;2023-01-31T06:44:03;100682.97;;;6.19;76.04
50684;BME280;36654;45.042;38.994;2023-01-31T06:46:29;100680.34;;;6.19;75.97
50684;BME280;36654;45.042;38.994;2023-01-31T06:48:54;100690.97;;;6.24;75.51
50684;BME280;36654;45.042;38.994;2023-01-31T06:51:20;100689.28;;;6.26;75.44
50684;BME280;36654;45.042;38.994;2023-01-31T06:53:45;100691.09;;;6.27;75.59
50684;BME280;36654;45.042;38.994;2023-01-31T06:56:11;100674.47;;;6.30;75.58
50684;BME280;36654;45.042;38.994;2023-01-31T06:58:36;100677.41;;;6.40;75.45
50684;BME280;36654;45.042;38.994;2023-01-31T07:01:04;100649.63;;;6.20;75.34
50684;BME280;36654;45.042;38.994;2023-01-31T07:03:30;100687.19;;;6.44;75.06
50684;BME280;36654;45.042;38.994;2023-01-31T07:05:55;100674.88;;;6.45;75.20
50684;BME280;36654;45.042;38.994;2023-01-31T07:08:21;100649.84;;;6.28;75.03
50684;BME280;36654;45.042;38.994;2023-01-31T07:10:47;100682.03;;;6.49;75.12
50684;BME280;36654;45.042;38.994;2023-01-31T07:13:14;100678.63;;;6.53;75.17
50684;BME280;36654;45.042;38.994;2023-01-31T07:15:39;100673.41;;;6.56;75.15
50684;BME280;36654;45.042;38.994;2023-01-31T07:18:05;100666.44;;;6.58;75.04
50684;BME280;36654;45.042;38.994;2023-01-31T07:20:31;100666.31;;;6.52;74.91
50684;BME280;36654;45.042;38.994;2023-01-31T07:22:57;100663.00;;;6.61;74.84
50684;BME280;36654;45.042;38.994;2023-01-31T07:25:27;100670.97;;;6.62;74.83
50684;BME280;36654;45.042;38.994;2023-01-31T07:27:52;100634.53;;;6.46;74.68
50684;BME280;36654;45.042;38.994;2023-01-31T07:30:18;100677.38;;;6.74;74.38
50684;BME280;36654;45.042;38.994;2023-01-31T07:32:44;100650.81;;;6.64;74.23
50684;BME280;36654;45.042;38.994;2023-01-31T07:35:09;100672.13;;;6.74;74.43
50684;BME280;36654;45.042;38.994;2023-01-31T07:37:36;100663.38;;;6.75;74.25
50684;BME280;36654;45.042;38.994;2023-01-31T07:40:02;100668.66;;;6.76;74.44
50684;BME280;36654;45.042;38.994;2023-01-31T07:42:29;100617.91;;;6.47;74.42
50684;BME280;36654;45.042;38.994;2023-01-31T07:44:55;100663.31;;;6.73;74.53
50684;BME280;36654;45.042;38.994;2023-01-31T07:47:20;100618.72;;;6.46;74.73
50684;BME280;36654;45.042;38.994;2023-01-31T07:49:46;100667.75;;;6.74;74.66
50684;BME280;36654;45.042;38.994;2023-01-31T07:52:15;100670.41;;;6.76;74.78
50684;BME280;36654;45.042;38.994;2023-01-31T07:54:40;100672.28;;;6.80;74.73
50684;BME280;36654;45.042;38.994;2023-01-31T07:57:06;100666.94;;;6.77;74.86
50684;BME280;36654;45.042;38.994;2023-01-31T07:59:32;100650.97;;;6.70;74.62
50684;BME280;36654;45.042;38.994;2023-01-31T08:01:57;100667.84;;;6.79;74.82
50684;BME280;36654;45.042;38.994;2023-01-31T08:04:41;100660.69;;;6.73;75.08
50684;BME280;36654;45.042;38.994;2023-01-31T08:07:07;100660.69;;;6.73;74.92
50684;BME280;36654;45.042;38.994;2023-01-31T08:09:34;100674.69;;;6.70;75.24
50684;BME280;36654;45.042;38.994;2023-01-31T08:12:00;100662.38;;;6.69;75.65
50684;BME280;36654;45.042;38.994;2023-01-31T08:14:26;100665.16;;;6.76;75.45
50684;BME280;36654;45.042;38.994;2023-01-31T08:16:53;100647.56;;;6.75;75.35
50684;BME280;36654;45.042;38.994;2023-01-31T08:19:20;100610.44;;;6.65;75.58
50684;BME280;36654;45.042;38.994;2023-01-31T08:21:46;100650.72;;;6.96;75.35
50684;BME280;36654;45.042;38.994;2023-01-31T08:24:11;100664.06;;;7.02;75.22
50684;BME280;36654;45.042;38.994;2023-01-31T08:26:37;100655.16;;;6.97;74.78
50684;BME280;36654;45.042;38.994;2023-01-31T08:29:02;100612.44;;;6.76;75.02
50684;BME280;36654;45.042;38.994;2023-01-31T08:31:28;100656.16;;;7.04;74.97
50684;BME280;36654;45.042;38.994;2023-01-31T08:33:54;100646.66;;;7.09;74.96
50684;BME280;36654;45.042;38.994;2023-01-31T08:36:26;100625.41;;;7.03;74.67
50684;BME280;36654;45.042;38.994;2023-01-31T08:38:54;100636.28;;;7.17;74.83
50684;BME280;36654;45.042;38.994;2023-01-31T08:41:21;100635.56;;;7.24;74.77
50684;BME280;36654;45.042;38.994;2023-01-31T08:43:47;100593.00;;;7.07;74.72
50684;BME280;36654;45.042;38.994;2023-01-31T08:46:13;100625.81;;;7.21;74.37
50684;BME280;36654;45.042;38.994;2023-01-31T08:48:39;100627.75;;;7.28;74.61
50684;BME280;36654;45.042;38.994;2023-01-31T08:51:08;100610.97;;;7.25;74.61
50684;BME280;36654;45.042;38.994;2023-01-31T08:53:37;100602.31;;;7.29;74.64
50684;BME280;36654;45.042;38.994;2023-01-31T08:56:05;100613.03;;;7.38;74.41
50684;BME280;36654;45.042;38.994;2023-01-31T08:58:31;100611.31;;;7.40;74.58
50684;BME280;36654;45.042;38.994;2023-01-31T09:01:09;100603.47;;;7.42;74.61
50684;BME280;36654;45.042;38.994;2023-01-31T09:03:35;100594.72;;;7.44;74.51
50684;BME280;36654;45.042;38.994;2023-01-31T09:06:02;100597.34;;;7.44;74.30
50684;BME280;36654;45.042;38.994;2023-01-31T09:08:29;100573.34;;;7.32;74.20
50684;BME280;36654;45.042;38.994;2023-01-31T09:10:56;100594.00;;;7.53;73.91
50684;BME280;36654;45.042;38.994;2023-01-31T09:13:25;100585.94;;;7.45;73.65
50684;BME280;36654;45.042;38.994;2023-01-31T09:18:27;100594.78;;;7.47;73.79
50684;BME280;36654;45.042;38.994;2023-01-31T09:20:53;100587.72;;;7.46;73.64
50684;BME280;36654;45.042;38.994;2023-01-31T09:23:19;100593.22;;;7.57;73.76
50684;BME280;36654;45.042;38.994;2023-01-31T09:25:54;100595.09;;;7.63;73.21
50684;BME280;36654;45.042;38.994;2023-01-31T09:28:21;100608.28;;;7.63;72.82
50684;BME280;36654;45.042;38.994;2023-01-31T09:30:48;100569.38;;;7.52;72.68
50684;BME280;36654;45.042;38.994;2023-01-31T09:33:14;100588.09;;;7.65;71.99
50684;BME280;36654;45.042;38.994;2023-01-31T09:35:39;100587.22;;;7.64;72.00
50684;BME280;36654;45.042;38.994;2023-01-31T09:38:05;100575.69;;;7.61;72.08
50684;BME280;36654;45.042;38.994;2023-01-31T09:40:32;100567.94;;;7.68;72.26
50684;BME280;36654;45.042;38.994;2023-01-31T09:43:00;100563.75;;;7.78;72.00
50684;BME280;36654;45.042;38.994;2023-01-31T09:45:36;100500.13;;;7.63;71.89
50684;BME280;36654;45.042;38.994;2023-01-31T09:48:04;100565.97;;;8.04;71.60
50684;BME280;36654;45.042;38.994;2023-01-31T09:50:41;100546.47;;;7.95;71.24
50684;BME280;36654;45.042;38.994;2023-01-31T09:53:16;100489.63;;;7.66;71.27
50684;BME280;36654;45.042;38.994;2023-01-31T10:06:51;100525.75;;;8.18;70.70
50684;BME280;36654;45.042;38.994;2023-01-31T10:12:13;100523.06;;;8.15;70.13
50684;BME280;36654;45.042;38.994;2023-01-31T10:14:46;100515.94;;;8.10;69.54
50684;BME280;36654;45.042;38.994;2023-01-31T10:17:32;100516.66;;;7.99;69.42
50684;BME280;36654;45.042;38.994;2023-01-31T10:23:14;100512.25;;;8.00;68.48
50684;BME280;36654;45.042;38.994;2023-01-31T10:25:52;100516.81;;;8.09;68.38
50684;BME280;36654;45.042;38.994;2023-01-31T10:28:37;100507.22;;;8.14;68.46
50684;BME280;36654;45.042;38.994;2023-01-31T10:34:13;100511.81;;;8.24;67.53
50684;BME280;36654;45.042;38.994;2023-01-31T10:37:02;100503.00;;;8.25;67.13
50684;BME280;36654;45.042;38.994;2023-01-31T10:39:36;100487.06;;;8.19;66.91
50684;BME280;36654;45.042;38.994;2023-01-31T10:45:01;100429.31;;;7.87;67.01
50684;BME280;36654;45.042;38.994;2023-01-31T10:47:36;100494.19;;;8.26;67.38
50684;BME280;36654;45.042;38.994;2023-01-31T10:50:18;100490.69;;;8.24;67.70
50684;BME280;36654;45.042;38.994;2023-01-31T10:53:10;100490.72;;;8.27;67.57
50684;BME280;36654;45.042;38.994;2023-01-31T10:58:14;100467.66;;;8.17;67.47
50684;BME280;36654;45.042;38.994;2023-01-31T11:00:40;100481.78;;;8.19;66.96
50684;BME280;36654;45.042;38.994;2023-01-31T11:03:10;100472.91;;;8.14;67.05
50684;BME280;36654;45.042;38.994;2023-01-31T11:05:54;100477.44;;;8.23;66.87
50684;BME280;36654;45.042;38.994;2023-01-31T11:10:56;100474.91;;;8.30;66.47
50684;BME280;36654;45.042;38.994;2023-01-31T11:13:22;100468.84;;;8.36;66.70
50684;BME280;36654;45.042;38.994;2023-01-31T11:15:50;100469.91;;;8.46;66.78
50684;BME280;36654;45.042;38.994;2023-01-31T11:18:29;100476.16;;;8.51;66.91
50684;BME280;36654;45.042;38.994;2023-01-31T11:20:57;100407.78;;;8.16;67.07
50684;BME280;36654;45.042;38.994;2023-01-31T11:23:25;100434.44;;;8.31;67.08
50684;BME280;36654;45.042;38.994;2023-01-31T11:25:53;100478.75;;;8.48;66.96
50684;BME280;36654;45.042;38.994;2023-01-31T11:28:39;100476.03;;;8.41;67.23
50684;BME280;36654;45.042;38.994;2023-01-31T11:31:18;100476.88;;;8.40;67.17
50684;BME280;36654;45.042;38.994;2023-01-31T11:34:00;100466.16;;;8.31;66.70
50684;BME280;36654;45.042;38.994;2023-01-31T11:36:31;100459.88;;;8.25;66.89
50684;BME280;36654;45.042;38.994;2023-01-31T11:38:58;100468.78;;;8.33;66.40
50684;BME280;36654;45.042;38.994;2023-01-31T11:44:06;100463.31;;;8.20;66.74
50684;BME280;36654;45.042;38.994;2023-01-31T11:46:44;100472.28;;;8.30;66.76
50684;BME280;36654;45.042;38.994;2023-01-31T11:49:15;100421.63;;;8.01;66.87
50684;BME280;36654;45.042;38.994;2023-01-31T11:51:44;100470.44;;;8.26;66.88
50684;BME280;36654;45.042;38.994;2023-01-31T11:54:17;100466.78;;;8.18;67.00
50684;BME280;36654;45.042;38.994;2023-01-31T11:56:45;100471.28;;;8.22;67.05
50684;BME280;36654;45.042;38.994;2023-01-31T11:59:17;100460.66;;;8.19;67.00
50684;BME280;36654;45.042;38.994;2023-01-31T12:01:46;100477.56;;;8.30;67.13
50684;BME280;36654;45.042;38.994;2023-01-31T12:04:25;100478.47;;;8.32;67.04
50684;BME280;36654;45.042;38.994;2023-01-31T12:07:01;100476.78;;;8.37;66.81
50684;BME280;36654;45.042;38.994;2023-01-31T12:09:30;100489.09;;;8.35;66.88
50684;BME280;36654;45.042;38.994;2023-01-31T12:12:29;100481.91;;;8.28;66.57
50684;BME280;36654;45.042;38.994;2023-01-31T12:15:04;100490.75;;;8.29;66.50
50684;BME280;36654;45.042;38.994;2023-01-31T12:17:43;100480.00;;;8.18;66.64
50684;BME280;36654;45.042;38.994;2023-01-31T12:20:43;100488.84;;;8.20;66.69
50684;BME280;36654;45.042;38.994;2023-01-31T12:23:38;100489.84;;;8.27;67.18
50684;BME280;36654;45.042;38.994;2023-01-31T12:26:42;100479.09;;;8.17;66.66
50684;BME280;36654;45.042;38.994;2023-01-31T12:32:35;100496.84;;;8.25;66.79
50684;BME280;36654;45.042;38.994;2023-01-31T12:34:56;100498.63;;;8.27;67.03
50684;BME280;36654;45.042;38.994;2023-01-31T12:42:43;100502.66;;;8.05;65.54
50684;BME280;36654;45.042;38.994;2023-01-31T12:50:59;100491.25;;;8.08;65.79
50684;BME280;36654;45.042;38.994;2023-01-31T13:02:26;100508.03;;;8.10;64.64
50684;BME280;36654;45.042;38.994;2023-01-31T13:04:44;100474.06;;;7.81;64.60
50684;BME280;36654;45.042;38.994;2023-01-31T13:07:37;100506.09;;;7.99;64.74
50684;BME280;36654;45.042;38.994;2023-01-31T13:10:03;100505.25;;;8.02;64.57
50684;BME280;36654;45.042;38.994;2023-01-31T13:12:32;100508.72;;;8.01;64.79
50684;BME280;36654;45.042;38.994;2023-01-31T13:15:30;100512.44;;;8.11;64.32
50684;BME280;36654;45.042;38.994;2023-01-31T13:18:02;100504.59;;;8.14;64.15
50684;BME280;36654;45.042;38.994;2023-01-31T13:20:37;100509.00;;;8.15;63.49
50684;BME280;36654;45.042;38.994;2023-01-31T13:23:21;100493.81;;;8.02;63.59
50684;BME280;36654;45.042;38.994;2023-01-31T13:25:59;100502.69;;;8.07;63.98
50684;BME280;36654;45.042;38.994;2023-01-31T13:28:31;100493.84;;;8.05;64.14
50684;BME280;36654;45.042;38.994;2023-01-31T13:31:02;100501.81;;;8.08;64.60
50684;BME280;36654;45.042;38.994;2023-01-31T13:33:35;100472.56;;;7.95;64.82
50684;BME280;36654;45.042;38.994;2023-01-31T13:36:14;100504.59;;;8.14;65.13
50684;BME280;36654;45.042;38.994;2023-01-31T13:38:43;100447.63;;;7.78;65.32
50684;BME280;36654;45.042;38.994;2023-01-31T13:41:24;100508.91;;;8.10;65.70
50684;BME280;36654;45.042;38.994;2023-01-31T13:43:51;100511.53;;;8.09;65.94
50684;BME280;36654;45.042;38.994;2023-01-31T13:46:20;100515.91;;;8.08;66.14
50684;BME280;36654;45.042;38.994;2023-01-31T13:49:12;100513.25;;;8.07;66.18
50684;BME280;36654;45.042;38.994;2023-01-31T13:51:43;100519.38;;;8.06;66.68
50684;BME280;36654;45.042;38.994;2023-01-31T13:54:40;100518.47;;;8.04;67.06
50684;BME280;36654;45.042;38.994;2023-01-31T13:57:22;100509.47;;;7.92;67.20
50684;BME280;36654;45.042;38.994;2023-01-31T14:01:00;100521.78;;;7.93;67.69
50684;BME280;36654;45.042;38.994;2023-01-31T14:03:04;100500.53;;;7.84;67.97
50684;BME280;36654;45.042;38.994;2023-01-31T14:10:54;100518.13;;;7.85;67.92
50684;BME280;36654;45.042;38.994;2023-01-31T14:15:56;100489.50;;;7.60;67.73
50684;BME280;36654;45.042;38.994;2023-01-31T14:18:39;100523.31;;;7.79;67.80
50684;BME280;36654;45.042;38.994;2023-01-31T14:23:57;100527.66;;;7.77;68.13
50684;BME280;36654;45.042;38.994;2023-01-31T14:29:08;100531.94;;;7.70;68.33
50684;BME280;36654;45.042;38.994;2023-01-31T14:31:37;100528.16;;;7.57;68.42
50684;BME280;36654;45.042;38.994;2023-01-31T14:34:03;100539.84;;;7.70;68.62
50684;BME280;36654;45.042;38.994;2023-01-31T14:42:23;100536.84;;;7.53;69.95
50684;BME280;36654;45.042;38.994;2023-01-31T14:58:26;100538.72;;;7.57;70.23
50684;BME280;36654;45.042;38.994;2023-01-31T15:00:56;100541.38;;;7.59;70.38